Time;durP1;ratioP1;P1;durP2;ratioP2;P2;SDS_P1;SDS_P2;PMS_P1;PMS_P2;Temp;Humidity;BMP_temperature;BMP_pressure;BME280_temperature;BME280_humidity;BME280_pressure;Samples;Min_cycle;Max_cycle;Signal;HPM_P1;HPM_P2
2023/06/02 00:00:39;;;;;;;10.50;5.50;;;;;;;11.69;67.13;100452.80;105137;1258;83447;-61
2023/06/02 00:03:33;;;;;;;12.90;5.80;;;;;;;11.64;67.35;100455.10;105055;1260;75098;-60
2023/06/02 00:06:06;;;;;;;9.40;5.50;;;;;;;11.58;67.49;100459.88;105130;1259;69493;-61
2023/06/02 00:08:40;;;;;;;7.60;5.50;;;;;;;11.52;67.65;100461.67;105093;1262;69166;-61
2023/06/02 00:11:10;;;;;;;8.50;5.90;;;;;;;11.48;67.96;100460.77;105137;1262;74314;-61
2023/06/02 00:13:39;;;;;;;9.70;6.10;;;;;;;11.45;67.97;100461.46;105111;1260;83520;-61
2023/06/02 00:16:08;;;;;;;13.10;5.60;;;;;;;11.40;68.12;100466.89;105126;1260;72495;-60
2023/06/02 00:18:37;;;;;;;10.10;5.20;;;;;;;11.36;68.27;100466.00;105131;1262;69243;-60
2023/06/02 00:21:09;;;;;;;9.90;5.30;;;;;;;11.30;68.23;100467.64;105133;1261;69177;-61
2023/06/02 00:23:37;;;;;;;9.90;6.10;;;;;;;11.24;68.36;100474.33;105111;1260;73992;-60
2023/06/02 00:26:05;;;;;;;7.40;5.40;;;;;;;11.19;68.57;100476.45;105103;1260;82961;-60
2023/06/02 00:28:33;;;;;;;6.80;5.10;;;;;;;11.14;68.78;100471.94;105112;1262;73516;-60
2023/06/02 00:31:02;;;;;;;8.70;6.00;;;;;;;11.09;69.07;100472.44;105103;1262;69151;-60
2023/06/02 00:33:31;;;;;;;11.60;5.50;;;;;;;11.07;69.13;100476.89;104974;1264;69184;-60
2023/06/02 00:35:59;;;;;;;7.40;5.30;;;;;;;11.05;69.22;100474.73;105094;1262;75106;-60
2023/06/02 00:38:27;;;;;;;9.80;5.00;;;;;;;10.98;69.34;100473.05;105088;1262;83114;-60
2023/06/02 00:40:56;;;;;;;7.30;5.40;;;;;;;10.93;69.54;100475.85;105050;1262;74390;-60
2023/06/02 00:43:24;;;;;;;8.10;5.30;;;;;;;10.89;69.73;100474.26;104995;1263;69132;-60
2023/06/02 00:45:53;;;;;;;10.80;5.50;;;;;;;10.88;69.94;100472.54;105062;1260;69177;-60
2023/06/02 00:48:21;;;;;;;7.60;5.50;;;;;;;10.85;70.14;100470.20;105075;1262;74634;-60
2023/06/02 00:50:50;;;;;;;9.70;5.30;;;;;;;10.87;70.44;100472.60;104906;1265;83596;-61
2023/06/02 00:53:18;;;;;;;7.10;5.00;;;;;;;10.87;70.41;100472.59;105145;1262;71860;-60
2023/06/02 00:55:47;;;;;;;7.20;5.00;;;;;;;10.88;70.61;100475.52;105062;1260;69186;-60
2023/06/02 00:58:16;;;;;;;9.80;5.80;;;;;;;10.89;70.65;100472.16;105115;1260;69782;-60
2023/06/02 01:00:46;;;;;;;12.80;5.90;;;;;;;10.93;71.02;100473.41;105109;1262;74954;-60
2023/06/02 01:03:15;;;;;;;;;;;;;;;10.99;71.15;100472.85;105120;1261;83463;-61
2023/06/02 01:05:44;;;;;;;9.00;5.70;;;;;;;11.05;71.62;100477.70;105149;1260;73831;-61
2023/06/02 01:08:16;;;;;;;9.20;5.30;;;;;;;11.10;71.58;100479.60;105115;1260;69182;-61
2023/06/02 01:10:44;;;;;;;10.90;5.90;;;;;;;11.08;71.29;100479.65;105046;1260;69104;-61
2023/06/02 01:13:13;;;;;;;8.60;5.90;;;;;;;11.07;71.33;100480.59;105107;1260;74595;-60
2023/06/02 01:15:45;;;;;;;9.10;6.30;;;;;;;11.07;71.36;100481.98;104957;1260;83878;-61
2023/06/02 01:18:14;;;;;;;9.40;6.00;;;;;;;11.06;71.51;100484.11;105080;1260;72699;-60
2023/06/02 01:20:47;;;;;;;12.10;5.80;;;;;;;11.09;71.77;100487.50;104975;1262;69173;-60
2023/06/02 01:23:16;;;;;;;11.80;6.20;;;;;;;11.08;71.44;100488.23;105118;1262;69259;-60
2023/06/02 01:25:44;;;;;;;8.00;6.00;;;;;;;11.03;71.53;100488.77;105151;1259;73389;-60
2023/06/02 01:28:14;;;;;;;9.50;6.10;;;;;;;11.01;71.55;100487.98;105116;1260;82551;-60
2023/06/02 01:30:42;;;;;;;12.50;6.10;;;;;;;11.00;71.64;100485.21;105094;1262;73075;-60
2023/06/02 01:33:33;;;;;;;13.20;6.60;;;;;;;10.99;71.64;100490.66;105014;1263;69293;-60
2023/06/02 01:36:02;;;;;;;10.00;6.40;;;;;;;10.98;71.67;100487.91;105101;1261;69080;-60
2023/06/02 01:38:31;;;;;;;11.80;5.60;;;;;;;10.96;71.82;100491.13;105120;1260;73964;-60
2023/06/02 01:41:02;;;;;;;10.70;6.40;;;;;;;10.97;71.93;100493.73;105037;1264;83491;-60
2023/06/02 01:43:32;;;;;;;8.80;5.80;;;;;;;10.95;71.96;100487.85;104988;1260;72856;-60
2023/06/02 01:46:01;;;;;;;11.00;6.20;;;;;;;10.94;72.05;100485.77;105063;1260;69182;-60
2023/06/02 01:48:30;;;;;;;10.10;6.90;;;;;;;10.92;72.15;100483.40;105115;1260;69087;-60
2023/06/02 01:50:58;;;;;;;12.40;6.70;;;;;;;10.92;72.15;100489.35;105025;1260;74738;-60
2023/06/02 01:53:27;;;;;;;6.70;5.80;;;;;;;10.91;72.38;100495.68;105111;1260;82354;-60
2023/06/02 01:55:56;;;;;;;11.40;6.40;;;;;;;10.92;72.53;100494.76;104980;1264;73098;-60
2023/06/02 01:58:24;;;;;;;12.50;6.50;;;;;;;10.96;72.86;100493.95;105125;1259;69172;-60
2023/06/02 02:00:54;;;;;;;10.50;5.90;;;;;;;11.01;73.11;100494.63;105099;1258;69195;-60
2023/06/02 02:03:22;;;;;;;8.60;6.10;;;;;;;11.03;72.81;100494.89;105147;1260;72908;-60
2023/06/02 02:05:51;;;;;;;11.50;5.70;;;;;;;11.04;72.93;100496.27;105099;1262;83520;-60
2023/06/02 02:08:19;;;;;;;9.70;6.10;;;;;;;11.05;72.94;100496.21;105073;1262;73631;-61
2023/06/02 02:10:48;;;;;;;10.50;5.80;;;;;;;11.08;73.09;100495.56;105068;1260;69202;-60
2023/06/02 02:13:16;;;;;;;13.20;6.50;;;;;;;11.13;73.16;100494.00;105084;1261;69116;-60
2023/06/02 02:15:45;;;;;;;9.30;6.20;;;;;;;11.18;73.23;100497.64;105013;1260;75157;-61
2023/06/02 02:18:15;;;;;;;10.50;6.20;;;;;;;11.21;73.24;100502.77;105024;1260;83276;-60
2023/06/02 02:20:44;;;;;;;10.10;6.00;;;;;;;11.24;73.30;100500.04;105023;1259;72371;-60
2023/06/02 02:23:12;;;;;;;11.70;6.00;;;;;;;11.27;73.33;100500.48;105082;1258;69172;-60
2023/06/02 02:25:41;;;;;;;10.70;6.50;;;;;;;11.27;73.24;100497.13;105108;1262;69231;-60
2023/06/02 02:28:10;;;;;;;10.40;6.00;;;;;;;11.27;73.38;100499.76;105035;1260;74790;-60
2023/06/02 02:30:38;;;;;;;12.20;6.10;;;;;;;11.29;73.77;100496.16;105027;1264;83207;-60
2023/06/02 02:33:07;;;;;;;11.00;7.00;;;;;;;11.33;73.83;100495.48;105051;1262;73131;-60
2023/06/02 02:35:36;;;;;;;13.30;6.80;;;;;;;11.35;73.55;100495.42;105077;1260;69078;-60
2023/06/02 02:38:05;;;;;;;13.10;6.80;;;;;;;11.35;73.62;100500.84;105055;1260;69090;-60
2023/06/02 02:40:33;;;;;;;10.10;6.20;;;;;;;11.37;73.85;100506.88;105101;1260;74939;-61
2023/06/02 02:43:03;;;;;;;17.80;6.80;;;;;;;11.42;73.93;100506.36;105086;1262;83334;-60
2023/06/02 02:45:31;;;;;;;10.20;6.00;;;;;;;11.46;73.83;100507.59;105030;1260;73194;-60
2023/06/02 02:48:00;;;;;;;9.30;6.10;;;;;;;11.49;73.95;100510.13;105119;1260;69200;-60
2023/06/02 02:50:29;;;;;;;9.20;5.60;;;;;;;11.51;74.10;100511.95;105125;1262;69184;-61
2023/06/02 02:52:58;;;;;;;11.30;6.20;;;;;;;11.53;74.11;100510.64;105153;1259;74255;-60
2023/06/02 02:55:26;;;;;;;9.90;6.40;;;;;;;11.57;74.27;100513.65;105087;1262;83128;-61
2023/06/02 02:57:55;;;;;;;11.50;6.40;;;;;;;11.59;74.00;100513.05;105065;1260;72714;-61
2023/06/02 03:00:25;;;;;;;13.10;5.80;;;;;;;11.60;73.97;100511.05;105023;1260;69122;-61
2023/06/02 03:03:01;;;;;;;11.70;6.10;;;;;;;11.60;73.98;100511.59;104948;1264;69241;-61
2023/06/02 03:05:29;;;;;;;12.70;6.60;;;;;;;11.60;74.00;100510.88;105021;1260;74926;-60
2023/06/02 03:07:58;;;;;;;8.60;6.50;;;;;;;11.64;74.22;100510.39;105062;1265;83246;-61
2023/06/02 03:10:26;;;;;;;13.20;7.00;;;;;;;11.67;74.33;100512.55;105047;1262;73905;-61
2023/06/02 03:12:54;;;;;;;13.90;6.70;;;;;;;11.70;74.27;100513.85;105055;1258;69184;-61
2023/06/02 03:15:23;;;;;;;10.50;6.60;;;;;;;11.72;74.30;100515.15;105137;1262;69138;-61
2023/06/02 03:17:51;;;;;;;11.20;7.10;;;;;;;11.74;74.16;100514.36;105116;1260;74856;-61
2023/06/02 03:20:21;;;;;;;13.20;6.70;;;;;;;11.73;74.05;100515.47;104876;1265;83297;-61
2023/06/02 03:22:51;;;;;;;10.50;5.90;;;;;;;11.74;74.37;100517.15;105089;1260;73001;-61
2023/06/02 03:25:20;;;;;;;12.70;6.80;;;;;;;11.80;74.48;100523.03;105101;1258;69129;-61
2023/06/02 03:27:50;;;;;;;;;;;;;;;11.86;74.67;100525.64;105140;1262;69116;-61
2023/06/02 03:30:20;;;;;;;13.50;7.10;;;;;;;11.92;74.78;100527.52;105089;1262;73958;-61
2023/06/02 03:32:50;;;;;;;11.80;6.70;;;;;;;11.98;74.73;100525.35;105073;1260;83928;-61
2023/06/02 03:35:18;;;;;;;12.10;7.10;;;;;;;12.03;74.64;100523.39;105053;1260;73821;-61
2023/06/02 03:37:46;;;;;;;10.30;6.30;;;;;;;12.10;74.75;100526.44;105024;1263;69268;-62
2023/06/02 03:40:15;;;;;;;12.10;6.90;;;;;;;12.15;74.55;100524.98;105070;1260;69271;-61
2023/06/02 03:42:43;;;;;;;13.30;6.50;;;;;;;12.20;74.55;100523.17;105068;1262;75118;-61
2023/06/02 03:45:12;;;;;;;11.70;6.70;;;;;;;12.25;74.46;100520.54;105012;1264;82898;-62
2023/06/02 03:47:41;;;;;;;10.80;6.20;;;;;;;12.31;74.44;100523.63;105087;1262;74050;-62
2023/06/02 03:50:10;;;;;;;13.90;7.30;;;;;;;12.36;74.35;100526.75;105035;1259;69823;-62
2023/06/02 03:52:39;;;;;;;10.70;7.10;;;;;;;12.35;74.39;100529.05;105038;1262;69131;-62
2023/06/02 03:55:09;;;;;;;15.10;7.60;;;;;;;12.36;74.18;100528.85;105077;1262;75156;-62
2023/06/02 03:57:38;;;;;;;13.30;6.80;;;;;;;12.36;74.13;100526.73;105086;1260;83312;-62
2023/06/02 04:00:10;;;;;;;9.60;5.90;;;;;;;12.34;74.01;100528.21;105033;1264;72769;-62
2023/06/02 04:02:41;;;;;;;11.70;6.40;;;;;;;12.28;73.74;100527.79;105052;1260;69182;-62
2023/06/02 04:05:14;;;;;;;14.10;6.40;;;;;;;12.23;73.91;100532.16;105061;1262;69298;-62
2023/06/02 04:07:44;;;;;;;13.10;6.50;;;;;;;12.23;74.28;100531.14;105010;1260;73980;-62
2023/06/02 04:10:13;;;;;;;11.70;7.10;;;;;;;12.22;73.95;100535.02;105127;1260;82921;-62
2023/06/02 04:12:42;;;;;;;11.00;6.70;;;;;;;12.22;74.14;100538.17;105020;1263;72770;-62
2023/06/02 04:15:10;;;;;;;12.50;6.40;;;;;;;12.24;74.10;100539.51;105114;1261;69231;-62
2023/06/02 04:17:40;;;;;;;10.00;7.00;;;;;;;12.23;73.93;100541.45;105036;1262;69246;-61
2023/06/02 04:20:09;;;;;;;12.80;7.10;;;;;;;12.24;74.13;100548.06;105283;1262;74287;-61
2023/06/02 04:22:38;;;;;;;13.80;6.90;;;;;;;12.28;74.27;100550.36;105109;1264;83233;-62
2023/06/02 04:25:07;;;;;;;11.70;6.50;;;;;;;12.33;74.32;100554.05;105024;1259;73512;-61
2023/06/02 04:27:36;;;;;;;15.30;7.20;;;;;;;12.37;74.42;100555.59;105104;1260;69112;-61
2023/06/02 04:30:05;;;;;;;13.80;7.50;;;;;;;12.43;74.65;100559.73;105134;1263;69054;-61
2023/06/02 04:32:35;;;;;;;12.40;6.70;;;;;;;12.47;74.81;100557.99;105182;1264;74806;-62
2023/06/02 04:35:04;;;;;;;10.50;6.80;;;;;;;12.52;74.57;100558.50;105138;1265;83747;-62
2023/06/02 04:37:34;;;;;;;10.10;6.40;;;;;;;12.58;74.38;100558.92;105172;1259;73173;-61
2023/06/02 04:40:06;;;;;;;12.60;7.80;;;;;;;12.64;74.55;100560.95;105137;1259;69001;-62
2023/06/02 04:42:36;;;;;;;;;;;;;;;12.68;74.66;100560.41;104977;1259;69199;-62
2023/06/02 04:45:16;;;;;;;;;;;;;;;12.74;74.69;100563.33;105121;1259;74051;-62
2023/06/02 04:47:47;;;;;;;12.30;6.60;;;;;;;12.79;74.70;100563.98;105189;1264;83881;-62
2023/06/02 04:50:16;;;;;;;10.00;6.90;;;;;;;12.80;74.50;100563.92;105108;1260;72725;-62
2023/06/02 04:52:45;;;;;;;12.10;6.10;;;;;;;12.82;74.52;100564.73;105223;1261;69186;-62
2023/06/02 04:55:16;;;;;;;13.60;7.00;;;;;;;12.85;74.47;100571.09;105115;1260;69299;-62
2023/06/02 04:57:48;;;;;;;11.80;7.40;;;;;;;12.89;74.54;100572.83;105119;1260;74761;-62
2023/06/02 05:00:17;;;;;;;12.20;7.60;;;;;;;12.96;74.54;100578.33;105255;1262;83096;-62
2023/06/02 05:02:46;;;;;;;11.70;7.60;;;;;;;12.97;74.08;100578.29;105241;1260;73434;-62
2023/06/02 05:05:15;;;;;;;12.10;7.60;;;;;;;12.98;74.29;100584.40;105123;1259;69005;-62
2023/06/02 05:07:44;;;;;;;11.40;7.30;;;;;;;13.00;74.19;100585.33;105087;1264;69214;-62
2023/06/02 05:10:14;;;;;;;12.30;7.30;;;;;;;13.03;74.35;100589.25;105193;1262;74414;-62
2023/06/02 05:12:43;;;;;;;15.90;7.20;;;;;;;13.08;74.47;100589.18;105136;1262;83287;-62
2023/06/02 05:15:12;;;;;;;14.20;6.80;;;;;;;13.15;74.36;100594.45;104940;1262;73705;-62
2023/06/02 05:17:43;;;;;;;11.70;6.80;;;;;;;13.23;74.34;100589.41;105221;1260;69201;-63
2023/06/02 05:20:13;;;;;;;12.90;6.20;;;;;;;13.30;74.15;100593.31;105070;1259;69221;-62
2023/06/02 05:22:41;;;;;;;14.90;7.20;;;;;;;13.36;73.96;100588.81;105030;1260;74999;-62
2023/06/02 05:25:11;;;;;;;11.90;6.70;;;;;;;13.43;73.68;100590.30;105222;1261;83359;-62
2023/06/02 05:27:40;;;;;;;9.50;6.60;;;;;;;13.47;73.70;100589.73;105275;1262;72687;-62
2023/06/02 05:30:10;;;;;;;16.60;6.70;;;;;;;13.52;73.72;100586.19;105057;1259;69208;-62
2023/06/02 05:32:40;;;;;;;15.40;7.10;;;;;;;13.57;73.56;100584.73;105090;1263;69214;-62
2023/06/02 05:35:10;;;;;;;9.60;5.80;;;;;;;13.60;73.38;100585.61;105193;1261;73929;-62
2023/06/02 05:37:39;;;;;;;12.10;6.30;;;;;;;13.65;73.32;100590.33;104929;1265;83416;-62
2023/06/02 05:40:10;;;;;;;10.60;6.30;;;;;;;13.68;73.03;100594.56;105222;1260;73890;-62
2023/06/02 05:42:42;;;;;;;11.20;5.80;;;;;;;13.70;73.27;100591.48;105062;1261;69213;-62
2023/06/02 05:45:11;;;;;;;11.60;6.60;;;;;;;13.75;73.35;100592.66;105195;1262;69120;-62
2023/06/02 05:47:39;;;;;;;11.80;6.30;;;;;;;13.84;73.28;100602.60;105487;1262;73890;-62
2023/06/02 05:50:10;;;;;;;11.00;5.70;;;;;;;13.94;73.26;100602.13;104965;1265;83797;-62
2023/06/02 05:52:39;;;;;;;10.20;5.70;;;;;;;14.04;73.21;100601.47;105032;1259;73030;-62
2023/06/02 05:55:09;;;;;;;12.40;5.50;;;;;;;14.11;72.90;100601.32;105142;1260;69234;-63
2023/06/02 05:57:37;;;;;;;10.40;5.10;;;;;;;14.15;72.58;100604.45;105026;1264;221692;-62
2023/06/02 06:00:09;;;;;;;7.00;4.00;;;;;;;14.23;72.26;100601.45;105159;1259;73526;-63
2023/06/02 06:02:40;;;;;;;9.50;4.80;;;;;;;14.32;72.17;100601.66;105199;1260;82496;-64
2023/06/02 06:05:13;;;;;;;11.00;4.30;;;;;;;14.43;71.82;100604.68;105159;1260;73456;-64
2023/06/02 06:07:42;;;;;;;11.10;4.50;;;;;;;14.53;71.72;100601.73;105114;1260;69170;-65
2023/06/02 06:10:11;;;;;;;12.70;4.80;;;;;;;14.64;71.45;100603.65;105173;1262;69134;-62
2023/06/02 06:12:40;;;;;;;13.40;4.40;;;;;;;14.75;71.44;100603.05;105247;1260;73803;-66
2023/06/02 06:15:09;;;;;;;9.50;3.50;;;;;;;14.87;71.09;100606.48;104998;1260;83560;-65
2023/06/02 06:17:47;;;;;;;12.20;3.90;;;;;;;14.97;70.61;100608.64;105179;1262;74001;-65
2023/06/02 06:20:17;;;;;;;12.60;3.90;;;;;;;15.03;70.19;100609.21;105069;1260;69135;-64
2023/06/02 06:22:46;;;;;;;12.00;3.80;;;;;;;15.05;69.90;100613.48;105128;1260;69047;-63
2023/06/02 06:25:15;;;;;;;12.40;4.20;;;;;;;15.07;69.56;100615.30;105140;1263;75213;-66
2023/06/02 06:27:44;;;;;;;8.80;4.00;;;;;;;15.12;69.43;100618.06;105306;1262;84356;-65
2023/06/02 06:30:13;;;;;;;10.90;3.90;;;;;;;15.18;69.11;100620.74;105178;1263;73398;-64
2023/06/02 06:32:42;;;;;;;12.70;4.10;;;;;;;15.22;68.71;100620.02;105284;1260;69331;-63
2023/06/02 06:35:12;;;;;;;;;;;;;;;15.27;68.65;100619.76;105030;1265;69199;-64
2023/06/02 06:37:41;;;;;;;9.90;3.80;;;;;;;15.38;68.68;100623.02;105104;1260;74635;-64
2023/06/02 06:40:10;;;;;;;8.00;3.60;;;;;;;15.47;68.40;100619.58;105079;1260;82577;-64
2023/06/02 06:42:38;;;;;;;13.10;3.90;;;;;;;15.56;68.28;100625.77;105155;1260;73876;-64
2023/06/02 06:45:12;;;;;;;11.20;3.80;;;;;;;15.71;68.04;100626.17;105075;1263;69326;-64
2023/06/02 06:47:41;;;;;;;11.60;4.40;;;;;;;15.85;67.57;100629.67;105021;1262;69142;-63
2023/06/02 06:50:14;;;;;;;10.80;4.60;;;;;;;15.89;67.23;100625.41;105042;1264;73893;-64
2023/06/02 06:52:42;;;;;;;;;;;;;;;15.97;67.06;100626.00;105209;1260;82094;-64
2023/06/02 06:55:11;;;;;;;10.60;5.20;;;;;;;16.08;66.85;100625.39;105220;1260;73885;-63
2023/06/02 06:57:39;;;;;;;12.40;5.80;;;;;;;16.14;66.47;100621.52;105204;1260;69169;-64
2023/06/02 07:00:08;;;;;;;12.50;5.90;;;;;;;16.20;66.36;100623.45;105305;1260;70060;-64
2023/06/02 07:02:37;;;;;;;10.60;6.70;;;;;;;16.26;66.12;100623.48;105199;1260;74599;-64
2023/06/02 07:05:06;;;;;;;11.00;6.90;;;;;;;16.26;65.67;100630.50;105148;1260;83691;-64
2023/06/02 07:07:34;;;;;;;12.20;6.00;;;;;;;16.26;65.66;100629.46;105138;1262;73703;-63
2023/06/02 07:10:03;;;;;;;14.30;6.10;;;;;;;16.35;65.81;100631.77;105141;1262;69192;-64
2023/06/02 07:12:31;;;;;;;10.70;5.80;;;;;;;16.51;65.71;100638.42;105258;1261;69196;-65
2023/06/02 07:15:00;;;;;;;12.50;5.50;;;;;;;16.61;65.32;100636.66;105194;1265;73878;-63
2023/06/02 07:17:28;;;;;;;14.00;5.10;;;;;;;16.75;64.92;100641.80;105171;1262;83740;-63
2023/06/02 07:19:57;;;;;;;11.90;5.60;;;;;;;16.85;64.53;100646.35;105169;1260;73803;-63
2023/06/02 07:22:25;;;;;;;14.50;5.80;;;;;;;16.90;64.03;100649.59;105330;1260;69095;-65
2023/06/02 07:24:53;;;;;;;13.30;5.80;;;;;;;16.87;63.57;100649.39;105109;1260;69015;-63
2023/06/02 07:27:21;;;;;;;14.00;6.20;;;;;;;16.81;63.28;100650.31;105146;1260;74723;-64
2023/06/02 07:29:50;;;;;;;12.50;6.10;;;;;;;16.74;63.09;100647.86;105098;1260;82498;-64
2023/06/02 07:32:18;;;;;;;12.30;6.70;;;;;;;16.72;63.16;100648.67;105078;1265;72077;-62
2023/06/02 07:34:47;;;;;;;14.20;6.50;;;;;;;16.68;62.90;100654.17;105203;1264;69094;-65
2023/06/02 07:37:16;;;;;;;12.50;6.50;;;;;;;16.58;62.47;100650.89;105107;1260;69096;-63
2023/06/02 07:39:44;;;;;;;12.50;6.50;;;;;;;16.50;62.40;100654.89;105201;1262;75174;-63
2023/06/02 07:42:12;;;;;;;9.80;6.10;;;;;;;16.49;62.51;100656.57;105173;1260;83679;-64
2023/06/02 07:44:41;;;;;;;11.50;6.30;;;;;;;16.58;62.74;100653.23;105264;1259;73600;-62
2023/06/02 07:47:10;;;;;;;12.70;6.40;;;;;;;16.76;62.74;100657.64;105153;1264;69170;-63
2023/06/02 07:49:39;;;;;;;12.20;6.40;;;;;;;17.01;62.76;100653.35;105142;1260;69061;-62
2023/06/02 07:52:07;;;;;;;11.40;6.50;;;;;;;17.26;62.18;100654.70;105200;1263;73993;-63
2023/06/02 07:54:36;;;;;;;12.30;6.20;;;;;;;17.42;61.94;100654.77;105055;1260;82766;-63
2023/06/02 07:57:05;;;;;;;9.90;6.10;;;;;;;17.58;61.89;100652.49;105137;1262;73742;-64
2023/06/02 07:59:33;;;;;;;10.80;6.50;;;;;;;17.77;61.66;100653.82;105260;1258;69200;-64
2023/06/02 08:02:03;;;;;;;10.70;5.90;;;;;;;17.98;60.93;100656.41;105142;1262;69068;-63
2023/06/02 08:04:32;;;;;;;12.80;7.20;;;;;;;18.17;60.64;100659.10;105127;1260;75056;-63
2023/06/02 08:07:00;;;;;;;15.60;6.70;;;;;;;18.29;59.88;100659.57;104995;1260;83300;-64
2023/06/02 08:09:29;;;;;;;13.00;6.30;;;;;;;18.31;59.37;100660.30;105096;1264;73555;-63
2023/06/02 08:11:57;;;;;;;11.40;5.90;;;;;;;18.27;59.07;100661.61;105178;1262;69492;-63
2023/06/02 08:14:25;;;;;;;7.70;4.70;;;;;;;18.26;58.72;100660.09;105281;1262;69171;-63
2023/06/02 08:16:55;;;;;;;14.30;5.00;;;;;;;18.30;58.70;100665.68;105108;1262;74200;-64
2023/06/02 08:19:27;;;;;;;10.90;4.60;;;;;;;18.30;58.21;100669.24;105093;1262;83401;-64
2023/06/02 08:21:55;;;;;;;12.70;4.90;;;;;;;18.25;58.02;100670.77;105025;1263;73787;-64
2023/06/02 08:24:26;;;;;;;11.80;4.70;;;;;;;18.25;57.91;100671.30;105088;1263;69219;-64
2023/06/02 08:26:55;;;;;;;10.20;4.50;;;;;;;18.34;57.95;100667.52;105008;1263;69186;-64
2023/06/02 08:29:23;;;;;;;12.60;4.60;;;;;;;18.42;57.69;100666.64;105140;1263;73946;-64
2023/06/02 08:31:52;;;;;;;14.00;4.50;;;;;;;18.46;57.53;100663.57;105083;1263;83277;-63
2023/06/02 08:34:21;;;;;;;20.20;5.20;;;;;;;18.47;57.00;100663.46;105092;1260;73648;-64
2023/06/02 08:36:57;;;;;;;10.10;4.90;;;;;;;18.54;57.14;100660.56;105129;1260;69157;-63
2023/06/02 08:39:28;;;;;;;10.10;4.20;;;;;;;18.74;57.57;100661.39;105077;1260;69221;-64
2023/06/02 08:41:57;;;;;;;8.40;3.80;;;;;;;18.91;57.20;100659.89;105076;1260;74683;-64
2023/06/02 08:44:28;;;;;;;8.70;3.70;;;;;;;18.98;56.72;100664.39;105105;1263;83420;-64
2023/06/02 08:46:57;;;;;;;10.40;4.00;;;;;;;18.88;56.41;100665.56;105070;1260;73897;-63
2023/06/02 08:49:26;;;;;;;13.60;4.70;;;;;;;18.79;56.04;100667.41;105098;1262;69184;-63
2023/06/02 08:52:00;;;;;;;12.70;4.10;;;;;;;18.71;56.20;100665.95;105096;1263;69201;-63
2023/06/02 08:54:29;;;;;;;8.60;4.10;;;;;;;18.75;56.22;100667.13;105068;1262;73629;-63
2023/06/02 08:56:59;;;;;;;6.40;3.50;;;;;;;18.85;56.00;100668.23;105079;1262;83259;-64
2023/06/02 08:59:27;;;;;;;6.90;3.50;;;;;;;18.88;55.77;100673.88;105023;1260;73022;-63
2023/06/02 09:01:56;;;;;;;7.10;3.60;;;;;;;18.74;55.33;100673.06;105123;1259;69188;-64
2023/06/02 09:04:24;;;;;;;6.30;3.50;;;;;;;18.56;55.42;100674.08;105098;1260;69069;-64
2023/06/02 09:07:11;;;;;;;10.90;4.10;;;;;;;18.41;55.40;100677.13;105074;1263;75059;-63
2023/06/02 09:09:45;;;;;;;13.10;4.30;;;;;;;18.31;55.62;100679.91;105098;1262;83236;-63
2023/06/02 09:12:14;;;;;;;9.10;4.00;;;;;;;18.26;55.41;100683.23;105066;1262;73759;-64
2023/06/02 09:14:43;;;;;;;10.10;3.90;;;;;;;18.19;55.29;100680.69;105041;1259;69212;-63
2023/06/02 09:17:29;;;;;;;9.20;3.40;;;;;;;18.20;55.43;100678.70;105106;1260;69032;-64
2023/06/02 09:20:06;;;;;;;10.70;3.90;;;;;;;18.28;55.56;100680.11;105048;1261;75013;-63
2023/06/02 09:22:34;;;;;;;9.00;3.90;;;;;;;18.37;55.63;100683.27;105127;1264;83397;-64
2023/06/02 09:25:20;;;;;;;7.70;3.60;;;;;;;18.47;55.96;100685.73;105019;1263;73747;-64
2023/06/02 09:27:53;;;;;;;10.90;3.80;;;;;;;18.59;55.58;100684.79;105086;1261;69263;-63
2023/06/02 09:30:22;;;;;;;8.20;3.40;;;;;;;18.69;55.17;100680.39;105084;1263;69234;-63
2023/06/02 09:33:03;;;;;;;7.20;3.40;;;;;;;18.88;55.42;100680.25;105069;1263;75159;-64
2023/06/02 09:35:42;;;;;;;7.90;3.50;;;;;;;19.14;55.35;100682.95;105072;1262;83374;-64
2023/06/02 09:38:20;;;;;;;7.60;4.30;;;;;;;19.25;54.84;100682.92;105025;1263;73696;-64
2023/06/02 09:40:48;;;;;;;8.70;4.50;;;;;;;19.27;54.46;100696.08;105017;1262;69234;-64
2023/06/02 09:43:28;;;;;;;9.30;4.60;;;;;;;19.25;54.04;100697.79;105026;1263;69756;-64
2023/06/02 09:46:01;;;;;;;7.90;4.90;;;;;;;19.16;53.67;100699.80;105075;1261;75610;-65
2023/06/02 09:48:30;;;;;;;11.30;5.50;;;;;;;19.12;53.50;100703.79;105105;1262;83434;-63
2023/06/02 09:50:58;;;;;;;11.00;6.70;;;;;;;19.15;53.49;100705.69;105087;1261;73378;-63
2023/06/02 09:53:28;;;;;;;11.70;5.50;;;;;;;19.19;53.52;100704.92;104934;1261;69074;-63
2023/06/02 09:55:56;;;;;;;17.20;5.70;;;;;;;19.11;53.49;100708.45;105032;1265;69133;-63
2023/06/02 09:58:24;;;;;;;9.30;4.80;;;;;;;19.06;53.66;100711.42;105090;1262;74045;-63
2023/06/02 10:00:55;;;;;;;8.90;4.60;;;;;;;19.02;53.71;100711.74;105107;1262;83385;-63
2023/06/02 10:03:23;;;;;;;7.60;4.80;;;;;;;19.03;54.01;100715.05;105099;1263;72743;-63
2023/06/02 10:06:07;;;;;;;8.80;4.90;;;;;;;19.04;54.15;100719.40;105020;1269;69220;-63
2023/06/02 10:08:48;;;;;;;12.60;6.20;;;;;;;19.09;54.22;100720.84;105044;1264;69153;-63
2023/06/02 10:11:46;;;;;;;8.40;5.10;;;;;;;19.08;54.00;100723.53;105058;1267;74575;-63
2023/06/02 10:14:36;;;;;;;12.70;5.40;;;;;;;19.24;54.16;100725.48;105030;1263;83571;-63
2023/06/02 10:17:07;;;;;;;8.20;5.30;;;;;;;19.43;54.24;100730.06;105051;1261;73758;-63
2023/06/02 10:20:01;;;;;;;8.50;6.10;;;;;;;19.58;54.12;100727.57;105061;1262;69135;-63
2023/06/02 10:22:48;;;;;;;13.80;6.40;;;;;;;19.70;53.60;100732.62;105071;1262;69135;-63
2023/06/02 10:25:40;;;;;;;8.70;6.30;;;;;;;19.66;53.31;100738.19;105081;1264;75046;-63
2023/06/02 10:28:09;;;;;;;12.50;6.50;;;;;;;19.72;53.62;100737.83;105046;1262;83428;-63
2023/06/02 10:30:37;;;;;;;8.90;6.10;;;;;;;19.81;53.57;100737.70;105055;1264;73444;-63
2023/06/02 10:33:07;;;;;;;8.70;6.60;;;;;;;19.86;53.26;100740.86;105116;1261;69240;-63
2023/06/02 10:35:59;;;;;;;11.30;7.60;;;;;;;19.93;53.35;100742.36;104935;1265;69173;-63
2023/06/02 10:38:34;;;;;;;10.70;7.00;;;;;;;20.21;53.34;100741.05;105106;1267;74673;-63
2023/06/02 10:41:02;;;;;;;11.00;7.20;;;;;;;20.67;53.45;100745.02;105045;1265;82713;-63
2023/06/02 10:43:35;;;;;;;11.70;8.10;;;;;;;20.96;52.83;100743.79;105060;1263;73494;-63
2023/06/02 10:46:17;;;;;;;8.00;7.10;;;;;;;21.34;51.97;100750.69;105061;1266;69222;-63
2023/06/02 10:48:46;;;;;;;9.60;6.10;;;;;;;21.60;51.31;100748.10;105045;1273;69135;-63
2023/06/02 10:51:15;;;;;;;9.40;5.80;;;;;;;21.62;50.95;100754.17;105045;1267;75081;-65
2023/06/02 10:54:12;;;;;;;7.70;5.90;;;;;;;21.49;50.47;100748.42;105041;1263;83204;-65
2023/06/02 10:56:42;;;;;;;8.20;5.80;;;;;;;21.29;50.26;100749.95;105051;1263;73942;-65
2023/06/02 10:59:30;;;;;;;7.80;5.30;;;;;;;21.11;50.07;100746.89;105050;1260;69113;-65
2023/06/02 11:01:59;;;;;;;9.30;4.90;;;;;;;20.91;50.12;100752.27;105053;1266;69650;-65
2023/06/02 11:04:28;;;;;;;8.40;5.10;;;;;;;20.79;50.12;100755.52;105097;1262;74793;-65
2023/06/02 11:07:10;;;;;;;6.70;5.10;;;;;;;20.66;49.87;100752.70;105033;1260;83092;-64
2023/06/02 11:09:43;;;;;;;6.60;4.90;;;;;;;20.55;49.97;100752.14;105039;1262;73097;-63
2023/06/02 11:12:12;;;;;;;9.20;4.90;;;;;;;20.67;50.32;100755.86;105031;1263;69249;-63
2023/06/02 11:15:00;;;;;;;5.50;4.30;;;;;;;20.95;50.21;100755.89;105086;1263;69089;-64
2023/06/02 11:17:34;;;;;;;6.20;5.60;;;;;;;21.21;50.10;100755.56;105081;1264;73873;-64
2023/06/02 11:20:07;;;;;;;9.60;6.10;;;;;;;21.24;49.71;100759.23;105052;1266;82476;-64
2023/06/02 11:22:36;;;;;;;15.70;7.10;;;;;;;21.20;49.36;100757.42;104970;1264;73740;-64
2023/06/02 11:25:05;;;;;;;9.30;5.90;;;;;;;21.19;49.12;100751.98;105081;1263;69227;-64
2023/06/02 11:27:41;;;;;;;5.60;4.40;;;;;;;21.31;49.24;100758.02;105084;1259;69171;-64
2023/06/02 11:30:14;;;;;;;4.60;3.90;;;;;;;21.37;48.99;100762.65;105066;1261;74787;-64